createdAt,value
2023-05-01T00:03:39.157Z,100452.09
2023-05-01T00:08:40.688Z,100450.16
2023-05-01T00:13:42.064Z,100441.97
2023-05-01T00:18:43.648Z,100447.69
2023-05-01T00:23:45.113Z,100443.88
2023-05-01T00:28:46.499Z,100440.91
2023-05-01T00:33:47.870Z,100434.63
2023-05-01T00:38:49.325Z,100442.44
2023-05-01T00:43:51.931Z,100431.03
2023-05-01T00:48:53.551Z,100431.03
2023-05-01T00:53:55.939Z,100432.13
2023-05-01T00:58:57.457Z,100430.59
2023-05-01T01:03:58.845Z,100424.28
2023-05-01T01:09:11.340Z,100417.38
2023-05-01T01:14:16.909Z,100415.50
2023-05-01T01:19:57.319Z,100416.34
2023-05-01T01:24:59.028Z,100410.88
2023-05-01T01:30:33.719Z,100408.38
2023-05-01T01:35:35.086Z,100407.09
2023-05-01T01:40:55.133Z,100397.22
2023-05-01T01:46:00.784Z,100385.91
2023-05-01T01:51:04.818Z,100385.25
2023-05-01T01:56:07.004Z,100380.00
2023-05-01T02:01:08.440Z,100370.16
2023-05-01T02:06:09.834Z,100375.38
2023-05-01T02:11:11.265Z,100364.19
2023-05-01T02:16:13.188Z,100369.31
2023-05-01T02:21:14.695Z,100354.59
2023-05-01T02:26:17.024Z,100356.25
2023-05-01T02:31:18.452Z,100358.16
2023-05-01T02:36:20.372Z,100349.97
2023-05-01T02:41:22.466Z,100347.81
2023-05-01T02:46:24.409Z,100350.22
2023-05-01T02:51:26.135Z,100350.22
2023-05-01T02:56:27.903Z,100341.75
2023-05-01T03:01:29.756Z,100335.25
2023-05-01T03:06:31.446Z,100327.28
2023-05-01T03:11:32.891Z,100322.91
2023-05-01T03:16:34.312Z,100327.28
2023-05-01T03:21:36.930Z,100323.25
2023-05-01T03:26:38.360Z,100319.09
2023-05-01T03:31:39.844Z,100319.69
2023-05-01T03:36:41.408Z,100315.28
2023-05-01T03:41:43.078Z,100306.72
2023-05-01T03:46:44.528Z,100306.72
2023-05-01T03:51:46.262Z,100306.25
2023-05-01T03:56:47.642Z,100299.16
2023-05-01T04:01:49.550Z,100304.84
2023-05-01T04:06:51.099Z,100299.97
2023-05-01T04:11:52.586Z,100299.50
2023-05-01T04:16:54.014Z,100299.50
2023-05-01T04:21:55.405Z,100293.69
2023-05-01T04:26:56.770Z,100281.47
2023-05-01T04:31:58.236Z,100283.72
2023-05-01T04:36:59.771Z,100268.63
2023-05-01T04:42:02.064Z,100261.72
2023-05-01T04:47:04.848Z,100268.88
2023-05-01T04:52:06.379Z,100262.09
2023-05-01T04:57:08.043Z,100256.28
2023-05-01T05:02:09.692Z,100259.84
2023-05-01T05:07:11.229Z,100261.28
2023-05-01T05:12:14.511Z,100258.78
2023-05-01T05:17:15.906Z,100262.56
2023-05-01T05:22:17.285Z,100257.94
2023-05-01T05:27:18.656Z,100260.09
2023-05-01T05:32:20.248Z,100246.78
2023-05-01T05:37:21.750Z,100249.28
2023-05-01T05:42:23.397Z,100247.63
2023-05-01T05:47:24.836Z,100242.16
2023-05-01T05:52:26.288Z,100241.69
2023-05-01T05:57:27.678Z,100234.78
2023-05-01T06:02:29.222Z,100236.47
2023-05-01T06:07:30.898Z,100238.94
2023-05-01T06:12:32.379Z,100228.28
2023-05-01T06:17:35.947Z,100229.34
2023-05-01T06:22:37.372Z,100226.38
2023-05-01T06:27:38.749Z,100227.19
2023-05-01T06:32:41.977Z,100219.47
2023-05-01T06:37:43.402Z,100220.66
2023-05-01T06:42:44.805Z,100206.84
2023-05-01T06:47:46.210Z,100210.59
2023-05-01T06:52:47.764Z,100209.56
2023-05-01T06:57:49.137Z,100200.72
2023-05-01T07:02:50.702Z,100198.63
2023-05-01T07:08:00.841Z,100187.81
2023-05-01T07:13:03.436Z,100184.25
2023-05-01T07:18:07.781Z,100178.44
2023-05-01T07:23:12.359Z,100168.34
2023-05-01T07:28:13.779Z,100157.41
2023-05-01T07:33:15.250Z,100154.94
2023-05-01T07:38:16.751Z,100156.59
2023-05-01T07:43:18.375Z,100150.66
2023-05-01T07:48:19.775Z,100148.16
2023-05-01T07:53:22.661Z,100150.66
2023-05-01T07:58:24.050Z,100143.50
2023-05-01T08:03:27.601Z,100147.06
2023-05-01T08:08:29.226Z,100138.88
2023-05-01T08:13:30.860Z,100127.38
2023-05-01T08:18:32.333Z,100134.72
2023-05-01T08:23:33.726Z,100137.47
2023-05-01T08:28:35.411Z,100142.69
2023-05-01T08:33:36.802Z,100141.28
2023-05-01T08:38:38.171Z,100137.47
2023-05-01T08:43:40.718Z,100133.91
2023-05-01T08:48:42.530Z,100132.84
2023-05-01T08:53:43.906Z,100134.72
2023-05-01T08:58:45.830Z,100131.16
2023-05-01T09:03:47.561Z,100131.53
2023-05-01T09:08:48.974Z,100122.28
2023-05-01T09:13:51.054Z,100115.41
2023-05-01T09:18:52.963Z,100119.75
2023-05-01T09:23:54.336Z,100103.84
2023-05-01T09:28:59.487Z,100093.53
2023-05-01T09:34:04.835Z,100096.03
2023-05-01T09:39:06.412Z,100093.88
2023-05-01T09:44:17.596Z,100084.03
2023-05-01T09:49:18.972Z,100088.66
2023-05-01T09:54:20.722Z,100079.63
2023-05-01T09:59:22.161Z,100078.56
2023-05-01T10:04:31.127Z,100054.84
2023-05-01T10:09:32.515Z,100047.44
2023-05-01T10:14:38.512Z,100044.72
2023-05-01T10:19:39.933Z,100045.19
2023-05-01T10:24:46.103Z,100032.72
2023-05-01T10:29:48.903Z,100020.13
2023-05-01T10:34:58.784Z,100010.03
2023-05-01T10:40:00.399Z,100017.41
2023-05-01T10:45:27.569Z,100011.13
2023-05-01T10:50:29.170Z,100011.94
2023-05-01T10:55:33.862Z,99993.66
2023-05-01T11:00:35.312Z,99980.84
2023-05-01T11:06:04.742Z,99972.41
2023-05-01T11:11:21.385Z,99951.84
2023-05-01T11:16:37.949Z,99951.84
2023-05-01T11:21:40.506Z,99947.00
2023-05-01T11:26:42.204Z,99936.06
2023-05-01T11:31:43.604Z,99932.50
2023-05-01T11:36:51.855Z,99932.25
2023-05-01T11:42:09.292Z,99915.63
2023-05-01T11:47:10.803Z,99913.13
2023-05-01T11:52:12.295Z,99902.69
2023-05-01T11:57:13.955Z,99877.63
2023-05-01T12:02:19.895Z,99865.63
2023-05-01T12:07:24.499Z,99852.25
2023-05-01T12:12:26.265Z,99851.16
2023-05-01T12:17:29.938Z,99845.69
2023-05-01T12:22:31.579Z,99835.84
2023-05-01T12:27:33.413Z,99824.09
2023-05-01T12:32:34.930Z,99816.97
2023-05-01T12:37:36.483Z,99816.97
2023-05-01T12:42:37.866Z,99810.44
2023-05-01T12:47:39.299Z,99810.44
2023-05-01T12:52:40.725Z,99794.28
2023-05-01T12:57:54.640Z,99790.22
2023-05-01T13:02:56.144Z,99779.56
2023-05-01T13:07:58.882Z,99789.66
2023-05-01T13:13:00.257Z,99777.06
2023-05-01T13:18:05.283Z,99783.34
2023-05-01T13:23:10.882Z,99778.72
2023-05-01T13:28:17.732Z,99767.31
2023-05-01T13:33:19.100Z,99765.91
2023-05-01T13:38:23.300Z,99755.22
2023-05-01T13:43:24.681Z,99756.66
2023-05-01T13:48:26.052Z,99745.97
2023-05-01T13:53:30.406Z,99749.53
2023-05-01T13:58:32.536Z,99744.06
2023-05-01T14:03:40.291Z,99742.41
2023-05-01T14:08:42.989Z,99725.78
2023-05-01T14:13:45.338Z,99726.00
2023-05-01T14:18:47.397Z,99720.31
2023-05-01T14:23:48.839Z,99717.59
2023-05-01T14:28:50.213Z,99705.00
2023-05-01T14:33:57.352Z,99695.47
2023-05-01T14:38:59.612Z,99694.63
2023-05-01T14:44:00.982Z,99695.13
2023-05-01T14:49:02.500Z,99696.31
2023-05-01T14:54:03.912Z,99695.47
2023-05-01T14:59:05.300Z,99701.19
2023-05-01T15:04:07.578Z,99703.44
2023-05-01T15:09:09.706Z,99693.50
2023-05-01T15:14:11.086Z,99694.22
2023-05-01T15:19:12.498Z,99691.50
2023-05-01T15:24:13.930Z,99695.63
2023-05-01T15:29:15.392Z,99696.63
2023-05-01T15:34:17.144Z,99694.13
2023-05-01T15:39:20.020Z,99682.06
2023-05-01T15:44:21.432Z,99678.72
2023-05-01T15:49:22.861Z,99677.66
2023-05-01T15:54:24.553Z,99676.00
2023-05-01T15:59:26.888Z,99672.13
2023-05-01T16:04:28.272Z,99669.41
2023-05-01T16:09:31.220Z,99664.75
2023-05-01T16:14:34.071Z,99674.88
2023-05-01T16:19:38.188Z,99670.97
2023-05-01T16:24:40.013Z,99666.91
2023-05-01T16:29:41.447Z,99655.16
2023-05-01T16:34:42.955Z,99653.19
2023-05-01T16:39:44.357Z,99656.47
2023-05-01T16:44:45.813Z,99653.53
2023-05-01T16:49:47.188Z,99655.34
2023-05-01T16:54:48.556Z,99661.88
2023-05-01T16:59:50.064Z,99658.31
2023-05-01T17:04:51.649Z,99655.56
2023-05-01T17:09:53.211Z,99650.69
2023-05-01T17:14:54.894Z,99651.19
2023-05-01T17:19:56.406Z,99651.94
2023-05-01T17:25:01.977Z,99648.97
2023-05-01T17:30:04.469Z,99658.81
2023-05-01T17:35:06.113Z,99655.22
2023-05-01T17:40:08.854Z,99652.19
2023-05-01T17:45:10.902Z,99657.88
2023-05-01T17:50:13.276Z,99656.22
2023-05-01T17:55:17.128Z,99654.66
2023-05-01T18:00:19.693Z,99649.69
2023-05-01T18:05:21.523Z,99656.00
2023-05-01T18:10:22.956Z,99655.16
2023-05-01T18:15:24.437Z,99654.59
2023-05-01T18:20:25.909Z,99653.75
2023-05-01T18:25:28.094Z,99659.22
2023-05-01T18:30:29.487Z,99659.22
2023-05-01T18:35:30.856Z,99662.19
2023-05-01T18:40:32.323Z,99669.56
2023-05-01T18:45:33.701Z,99675.25
2023-05-01T18:50:37.904Z,99678.56
2023-05-01T18:55:39.280Z,99672.53
2023-05-01T19:00:40.725Z,99679.06
2023-05-01T19:05:44.773Z,99673.63
2023-05-01T19:10:46.389Z,99677.41
2023-05-01T19:15:47.817Z,99690.78
2023-05-01T19:20:49.214Z,99686.66
2023-05-01T19:25:50.743Z,99682.28
2023-05-01T19:30:52.111Z,99690.47
2023-05-01T19:35:53.478Z,99683.94
2023-05-01T19:40:54.883Z,99687.75
2023-05-01T19:45:56.544Z,99689.66
2023-05-01T19:50:57.975Z,99690.72
2023-05-01T19:55:59.443Z,99688.81
2023-05-01T20:01:03.363Z,99687.97
2023-05-01T20:06:06.198Z,99687.75
2023-05-01T20:11:07.847Z,99700.22
2023-05-01T20:16:09.827Z,99698.31
2023-05-01T20:21:11.403Z,99708.97
2023-05-01T20:26:12.935Z,99710.66
2023-05-01T20:31:14.350Z,99713.59
2023-05-01T20:36:17.196Z,99711.13
2023-05-01T20:41:18.652Z,99743.38
2023-05-01T20:46:20.261Z,99750.50
2023-05-01T20:51:21.922Z,99770.19
2023-05-01T20:56:23.704Z,99767.94
2023-05-01T21:01:25.172Z,99773.16
2023-05-01T21:06:27.127Z,99780.34
2023-05-01T21:11:28.631Z,99789.88
2023-05-01T21:16:30.116Z,99795.31
2023-05-01T21:21:32.843Z,99806.25
2023-05-01T21:26:34.268Z,99801.63
2023-05-01T21:31:36.565Z,99803.03
2023-05-01T21:36:47.414Z,99813.59
2023-05-01T21:41:49.318Z,99807.91
2023-05-01T21:46:53.932Z,99803.78
2023-05-01T21:51:59.180Z,99809.44
2023-05-01T21:57:00.721Z,99810.88
2023-05-01T22:02:08.273Z,99815.16
2023-05-01T22:07:09.638Z,99813.50
2023-05-01T22:12:11.109Z,99818.13
2023-05-01T22:17:12.480Z,99813.50
2023-05-01T22:22:14.017Z,99813.75
2023-05-01T22:27:18.296Z,99816.72
2023-05-01T22:32:19.710Z,99816.50
2023-05-01T22:37:21.642Z,99809.38
2023-05-01T22:42:23.240Z,99822.66
2023-05-01T22:47:24.687Z,99830.63
2023-05-01T22:52:26.094Z,99817.81
2023-05-01T22:57:27.471Z,99822.44
2023-05-01T23:02:28.935Z,99825.38
2023-05-01T23:07:30.631Z,99834.41
2023-05-01T23:12:32.624Z,99835.22
2023-05-01T23:17:34.358Z,99842.00
2023-05-01T23:22:37.952Z,99841.19
2023-05-01T23:27:40.804Z,99843.06
2023-05-01T23:32:42.298Z,99839.28
2023-05-01T23:37:43.803Z,99834.88
2023-05-01T23:42:45.254Z,99842.00
2023-05-01T23:47:46.654Z,99833.81
2023-05-01T23:52:48.079Z,99841.41
2023-05-01T23:57:49.474Z,99833.22
